Time;durP1;ratioP1;P1;durP2;ratioP2;P2;SDS_P1;SDS_P2;PMS_P1;PMS_P2;Temp;Humidity;BMP_temperature;BMP_pressure;BME280_temperature;BME280_humidity;BME280_pressure;Samples;Min_cycle;Max_cycle;Signal;HPM_P1;HPM_P2
2022/01/05 00:01:32;;;;;;;3.40;1.27;;;6.70;99.90;;;;;;4972488;28;20168;-75
2022/01/05 00:03:58;;;;;;;2.50;1.20;;;6.60;99.90;;;;;;4970866;28;20218;-75
2022/01/05 00:06:24;;;;;;;1.70;1.10;;;6.50;99.90;;;;;;4972307;28;20208;-75
2022/01/05 00:08:49;;;;;;;1.50;0.90;;;6.50;99.90;;;;;;4954981;28;20191;-75
2022/01/05 00:11:15;;;;;;;1.93;1.10;;;6.40;99.90;;;;;;4971073;28;20640;-75
2022/01/05 00:13:42;;;;;;;1.92;0.90;;;6.30;99.90;;;;;;4972129;28;20226;-75
2022/01/05 00:16:09;;;;;;;2.25;0.90;;;6.20;99.90;;;;;;4972202;28;20226;-75
2022/01/05 00:18:35;;;;;;;1.88;0.85;;;6.20;99.90;;;;;;4971153;28;20254;-75
2022/01/05 00:21:03;;;;;;;2.77;1.60;;;6.10;99.90;;;;;;4972195;28;20567;-75
2022/01/05 00:23:29;;;;;;;1.85;1.08;;;6.10;99.90;;;;;;4970815;28;20582;-75
2022/01/05 00:25:54;;;;;;;1.90;0.80;;;6.10;99.90;;;;;;4954770;28;20298;-74
2022/01/05 00:28:20;;;;;;;1.80;0.70;;;6.00;99.90;;;;;;4972226;28;20210;-74
2022/01/05 00:30:46;;;;;;;1.83;0.50;;;6.00;99.90;;;;;;4972236;28;21163;-75
2022/01/05 00:33:14;;;;;;;2.30;0.80;;;5.90;99.90;;;;;;4971803;28;20167;-75
2022/01/05 00:35:41;;;;;;;2.33;0.80;;;5.90;99.90;;;;;;4971437;28;20595;-75
2022/01/05 00:38:06;;;;;;;1.35;0.80;;;5.90;99.90;;;;;;4978756;28;20250;-75
2022/01/05 00:40:32;;;;;;;2.60;0.80;;;5.80;99.90;;;;;;4978240;28;20644;-75
2022/01/05 00:42:58;;;;;;;1.40;0.70;;;5.80;99.90;;;;;;4970410;28;20691;-75
2022/01/05 00:45:23;;;;;;;1.80;1.03;;;5.70;99.90;;;;;;4972045;28;20195;-75
2022/01/05 00:47:49;;;;;;;3.30;0.90;;;5.70;99.90;;;;;;4972134;28;20168;-74
2022/01/05 00:50:14;;;;;;;2.87;0.93;;;5.70;99.90;;;;;;4975722;28;20892;-75
2022/01/05 00:52:40;;;;;;;4.23;1.40;;;5.60;99.90;;;;;;4975105;28;20172;-75
2022/01/05 00:55:06;;;;;;;1.63;0.83;;;5.60;99.90;;;;;;4974422;28;20226;-75
2022/01/05 00:57:32;;;;;;;1.70;0.80;;;5.60;99.90;;;;;;4975659;28;20590;-75
2022/01/05 00:59:58;;;;;;;2.60;0.97;;;5.50;99.90;;;;;;4975383;28;20195;-75
2022/01/05 01:02:23;;;;;;;1.30;1.00;;;5.50;99.90;;;;;;4975191;28;20176;-75
2022/01/05 01:04:49;;;;;;;1.73;0.90;;;5.50;99.90;;;;;;4974347;28;20207;-75
2022/01/05 01:07:15;;;;;;;2.03;0.80;;;5.50;99.90;;;;;;4975240;28;20164;-75
2022/01/05 01:09:41;;;;;;;2.42;0.80;;;5.50;99.90;;;;;;4975181;28;20191;-74
2022/01/05 01:12:07;;;;;;;1.60;0.80;;;5.50;99.90;;;;;;4974987;28;20167;-75
2022/01/05 01:14:33;;;;;;;1.20;0.70;;;5.50;99.90;;;;;;4975181;28;20222;-75
2022/01/05 01:16:59;;;;;;;1.50;0.70;;;5.40;99.90;;;;;;4975182;28;20643;-75
2022/01/05 01:19:24;;;;;;;1.70;0.90;;;5.50;99.90;;;;;;4975442;28;20316;-75
2022/01/05 01:21:50;;;;;;;4.03;0.90;;;5.50;99.90;;;;;;4975092;28;20176;-75
2022/01/05 01:24:16;;;;;;;2.53;1.50;;;5.50;99.90;;;;;;4974788;28;20253;-75
2022/01/05 01:26:42;;;;;;;2.67;1.50;;;5.50;99.90;;;;;;4973794;28;20164;-75
2022/01/05 01:29:07;;;;;;;3.53;1.90;;;5.60;99.90;;;;;;4974708;28;20203;-75
2022/01/05 01:31:33;;;;;;;3.13;1.57;;;5.60;99.90;;;;;;4974680;28;20583;-75
2022/01/05 01:33:59;;;;;;;2.90;1.73;;;5.60;99.90;;;;;;4974537;28;20253;-75
2022/01/05 01:36:24;;;;;;;2.40;1.87;;;5.60;99.90;;;;;;4974913;28;20172;-75
2022/01/05 01:45:34;;;;;;;2.92;1.45;;;5.60;99.90;;;;;;5033219;28;20618;-76
2022/01/05 01:48:00;;;;;;;2.58;1.42;;;5.60;99.90;;;;;;5033341;28;20178;-76
2022/01/05 01:50:26;;;;;;;3.42;1.65;;;5.60;99.90;;;;;;5015117;28;20252;-76
2022/01/05 01:52:52;;;;;;;4.90;1.90;;;5.60;99.90;;;;;;5032699;28;20166;-77
2022/01/05 01:55:19;;;;;;;3.83;1.47;;;5.70;99.90;;;;;;5015409;28;20676;-76
2022/01/05 01:57:46;;;;;;;3.85;1.70;;;5.70;99.90;;;;;;5000155;28;20403;-78
2022/01/05 02:00:13;;;;;;;5.30;1.67;;;5.70;99.90;;;;;;5032823;28;20166;-78
2022/01/05 02:02:43;;;;;;;6.45;2.03;;;5.70;99.90;;;;;;5033130;28;20174;-78
2022/01/05 02:05:09;;;;;;;2.20;1.55;;;5.70;99.90;;;;;;5033162;28;20201;-78
2022/01/05 02:07:34;;;;;;;3.07;2.00;;;5.70;99.90;;;;;;5033108;28;20260;-78
2022/01/05 02:10:02;;;;;;;4.77;2.30;;;5.70;99.90;;;;;;5032609;28;20174;-78
2022/01/05 02:12:29;;;;;;;5.53;2.58;;;5.70;99.90;;;;;;5032816;28;20186;-78
2022/01/05 02:14:54;;;;;;;4.00;2.50;;;5.70;99.90;;;;;;5032907;28;20532;-78
2022/01/05 02:17:24;;;;;;;3.60;2.70;;;5.70;99.90;;;;;;5032846;28;20166;-78
2022/01/05 02:19:50;;;;;;;3.15;2.85;;;5.70;99.90;;;;;;5032464;28;20166;-78
2022/01/05 02:22:16;;;;;;;6.88;3.47;;;5.70;99.90;;;;;;5032619;28;20697;-78
2022/01/05 02:24:47;;;;;;;7.37;3.87;;;5.60;99.90;;;;;;5032700;28;20287;-78
2022/01/05 02:27:16;;;;;;;4.57;3.30;;;5.60;99.90;;;;;;5032729;28;20177;-77
2022/01/05 02:29:42;;;;;;;5.22;3.00;;;5.50;99.90;;;;;;5032307;28;20162;-77
2022/01/05 02:32:07;;;;;;;5.22;3.45;;;5.50;99.90;;;;;;5014939;28;20224;-77
2022/01/05 02:34:33;;;;;;;9.83;3.70;;;5.50;99.90;;;;;;5032690;28;20525;-78
2022/01/05 02:36:59;;;;;;;3.95;2.55;;;5.40;99.90;;;;;;5032168;28;20177;-77
2022/01/05 02:39:25;;;;;;;3.07;2.60;;;5.40;99.90;;;;;;5032416;28;20161;-77
2022/01/05 02:41:52;;;;;;;7.07;3.37;;;5.40;99.90;;;;;;5032065;28;20197;-77
2022/01/05 02:44:18;;;;;;;7.57;3.38;;;5.30;99.90;;;;;;5032247;28;20565;-77
2022/01/05 02:46:45;;;;;;;5.82;3.38;;;5.30;99.90;;;;;;5032069;28;20268;-77
2022/01/05 02:49:11;;;;;;;8.10;4.40;;;5.20;99.90;;;;;;5032273;28;20720;-77
2022/01/05 02:51:37;;;;;;;6.43;3.80;;;5.20;99.90;;;;;;5031749;28;20190;-77
2022/01/05 02:54:04;;;;;;;5.53;3.73;;;5.20;99.90;;;;;;5014597;28;20165;-77
2022/01/05 02:56:29;;;;;;;6.68;3.53;;;5.20;99.90;;;;;;5032119;28;20184;-77
2022/01/05 02:58:55;;;;;;;4.93;3.00;;;5.10;99.90;;;;;;5032056;28;20256;-77
2022/01/05 03:01:21;;;;;;;9.43;3.37;;;5.10;99.90;;;;;;4997524;28;20666;-77
2022/01/05 03:03:46;;;;;;;8.20;3.30;;;5.10;99.90;;;;;;5032016;28;20165;-77
2022/01/05 03:06:12;;;;;;;3.27;2.67;;;5.10;99.90;;;;;;5031847;28;20280;-77
2022/01/05 03:08:38;;;;;;;7.17;2.80;;;5.00;99.90;;;;;;5031689;28;20162;-77
2022/01/05 03:11:04;;;;;;;4.90;2.80;;;5.00;99.90;;;;;;5030977;28;20756;-77
2022/01/05 03:13:29;;;;;;;4.25;2.78;;;5.00;99.90;;;;;;5014294;28;20560;-78
2022/01/05 03:15:56;;;;;;;6.53;2.30;;;5.00;99.90;;;;;;4997888;28;20181;-77
2022/01/05 03:18:22;;;;;;;5.10;2.33;;;5.00;99.90;;;;;;5031738;28;20181;-77
2022/01/05 03:20:48;;;;;;;5.15;2.47;;;4.90;99.90;;;;;;5031507;28;20186;-77
2022/01/05 03:23:14;;;;;;;5.50;2.30;;;4.90;99.90;;;;;;5024742;28;20540;-77
2022/01/05 03:25:40;;;;;;;7.70;2.35;;;4.90;99.90;;;;;;5003706;28;20194;-77
2022/01/05 03:28:06;;;;;;;3.60;2.17;;;4.90;99.90;;;;;;5012073;28;20165;-77
2022/01/05 03:30:33;;;;;;;5.97;2.53;;;4.90;99.90;;;;;;5011668;28;20589;-77
2022/01/05 03:35:29;;;;;;;4.80;2.60;;;4.80;99.90;;;;;;5012010;28;20182;-78
2022/01/05 03:37:56;;;;;;;10.48;3.65;;;4.80;99.90;;;;;;5011306;28;20607;-78
2022/01/05 03:40:24;;;;;;;4.72;2.55;;;4.80;99.90;;;;;;5011376;28;20170;-77
2022/01/05 03:42:50;;;;;;;7.95;2.85;;;4.80;99.90;;;;;;5011969;28;20641;-77
2022/01/05 03:45:15;;;;;;;10.40;3.40;;;4.80;99.90;;;;;;4993855;28;20206;-77
2022/01/05 03:47:41;;;;;;;9.13;2.63;;;4.80;99.90;;;;;;4994483;28;20170;-78
2022/01/05 03:50:08;;;;;;;7.43;2.17;;;4.70;99.90;;;;;;5011287;28;20166;-78
2022/01/05 03:52:34;;;;;;;6.07;3.38;;;4.70;99.90;;;;;;5011997;28;20197;-77
2022/01/05 03:55:00;;;;;;;7.15;2.80;;;4.70;99.90;;;;;;5011756;28;20194;-77
2022/01/05 03:57:26;;;;;;;5.07;2.50;;;4.70;99.90;;;;;;4994207;28;20265;-77
2022/01/05 03:59:53;;;;;;;8.63;2.87;;;4.70;99.90;;;;;;5011238;28;20317;-77
2022/01/05 04:02:19;;;;;;;5.00;2.60;;;4.70;99.90;;;;;;4994278;28;20999;-77
2022/01/05 04:04:46;;;;;;;7.15;2.90;;;4.60;99.90;;;;;;4994068;28;20208;-77
2022/01/05 04:07:12;;;;;;;4.88;2.80;;;4.60;99.90;;;;;;5011721;28;20217;-77
2022/01/05 04:09:37;;;;;;;5.00;2.63;;;4.60;99.90;;;;;;5011409;28;20170;-77
2022/01/05 04:12:03;;;;;;;4.73;2.53;;;4.60;99.90;;;;;;5011448;28;20692;-77
2022/01/05 04:14:29;;;;;;;6.05;2.40;;;4.60;99.90;;;;;;5011809;28;20162;-78
2022/01/05 04:16:55;;;;;;;12.40;2.67;;;4.50;99.90;;;;;;5012296;28;20639;-78
2022/01/05 04:19:20;;;;;;;7.10;3.07;;;4.50;99.90;;;;;;5011738;28;20205;-78
2022/01/05 04:21:46;;;;;;;6.60;2.17;;;4.50;99.90;;;;;;5010956;28;20190;-77
2022/01/05 04:24:12;;;;;;;5.90;3.10;;;4.50;99.90;;;;;;5013427;28;20643;-78
2022/01/05 04:26:37;;;;;;;5.87;2.50;;;4.50;99.90;;;;;;5014969;28;20209;-77
2022/01/05 04:29:03;;;;;;;8.10;2.30;;;4.50;99.90;;;;;;5014950;28;20162;-77
2022/01/05 04:31:29;;;;;;;6.20;2.40;;;4.50;99.90;;;;;;4997232;28;20312;-77
2022/01/05 04:33:54;;;;;;;3.10;1.83;;;4.40;99.90;;;;;;5014760;28;20174;-77
2022/01/05 04:36:20;;;;;;;5.67;2.03;;;4.40;99.90;;;;;;4997289;28;20171;-77
2022/01/05 04:38:46;;;;;;;4.90;2.27;;;4.40;99.90;;;;;;4997481;28;20178;-77
2022/01/05 04:41:12;;;;;;;5.13;2.50;;;4.40;99.90;;;;;;5014349;28;20674;-77
2022/01/05 04:43:37;;;;;;;5.93;2.40;;;4.40;99.90;;;;;;5014879;28;20178;-77
2022/01/05 04:46:03;;;;;;;3.93;2.00;;;4.40;99.90;;;;;;5014038;28;20198;-77
2022/01/05 04:48:29;;;;;;;3.20;2.40;;;4.40;99.90;;;;;;4997340;28;20633;-77
2022/01/05 04:50:55;;;;;;;6.65;2.63;;;4.40;99.90;;;;;;4996710;28;20605;-76
2022/01/05 04:53:21;;;;;;;8.03;2.57;;;4.30;99.90;;;;;;4997042;28;20193;-77
2022/01/05 04:55:47;;;;;;;6.70;2.72;;;4.30;99.90;;;;;;4996828;28;20573;-77
2022/01/05 04:58:13;;;;;;;8.87;2.70;;;4.30;99.90;;;;;;5014607;28;20178;-77
2022/01/05 05:00:39;;;;;;;4.40;2.60;;;4.30;99.90;;;;;;5014144;28;20221;-77
2022/01/05 05:03:05;;;;;;;5.97;2.93;;;4.30;99.90;;;;;;5014601;28;20177;-77
2022/01/05 05:05:31;;;;;;;6.90;3.40;;;4.20;99.90;;;;;;5014569;28;20694;-77
2022/01/05 05:07:58;;;;;;;6.30;2.53;;;4.20;99.90;;;;;;5014565;28;20720;-77
2022/01/05 05:10:24;;;;;;;3.97;2.15;;;4.20;99.90;;;;;;5013828;28;20566;-77
2022/01/05 05:12:50;;;;;;;5.80;2.90;;;4.20;99.90;;;;;;5014781;28;20174;-77
2022/01/05 05:15:15;;;;;;;4.37;2.13;;;4.20;99.90;;;;;;5014287;28;20212;-76
2022/01/05 05:17:41;;;;;;;7.90;1.87;;;4.20;99.90;;;;;;5014466;28;20170;-77
2022/01/05 05:20:07;;;;;;;8.23;2.25;;;4.20;99.90;;;;;;5013738;28;20208;-77
2022/01/05 05:22:35;;;;;;;3.03;1.60;;;4.10;99.90;;;;;;5014236;28;20232;-77
2022/01/05 05:25:02;;;;;;;5.13;1.80;;;4.10;99.90;;;;;;5014098;28;20557;-77
2022/01/05 05:27:28;;;;;;;6.82;2.00;;;4.10;99.90;;;;;;5014078;28;20225;-77
2022/01/05 05:29:53;;;;;;;7.33;2.50;;;4.10;99.90;;;;;;5013689;28;20170;-77
2022/01/05 05:32:19;;;;;;;5.10;1.80;;;4.10;99.90;;;;;;5013984;28;20477;-77
2022/01/05 05:34:45;;;;;;;7.77;1.77;;;4.10;99.90;;;;;;4996077;28;20193;-77
2022/01/05 05:37:11;;;;;;;6.23;1.60;;;4.10;99.90;;;;;;5013905;28;20588;-77
2022/01/05 05:39:36;;;;;;;4.80;1.60;;;4.00;99.90;;;;;;5013641;28;20309;-77
2022/01/05 05:42:02;;;;;;;7.40;1.93;;;4.00;99.90;;;;;;5013573;28;20190;-75
2022/01/05 05:44:28;;;;;;;6.68;2.50;;;4.00;99.90;;;;;;5013828;28;20170;-78
2022/01/05 05:46:54;;;;;;;5.53;1.73;;;4.00;99.90;;;;;;5013675;28;20682;-78
2022/01/05 05:49:19;;;;;;;6.00;1.70;;;4.00;99.90;;;;;;5013124;28;20181;-79
2022/01/05 05:51:45;;;;;;;5.73;2.03;;;4.00;99.90;;;;;;4994907;28;20206;-78
2022/01/05 05:54:11;;;;;;;5.30;1.70;;;4.00;99.90;;;;;;5013348;28;20174;-78
2022/01/05 05:56:37;;;;;;;2.40;1.40;;;4.00;99.90;;;;;;4995955;28;20178;-78
2022/01/05 05:59:03;;;;;;;3.57;1.27;;;4.00;99.90;;;;;;5013404;28;20605;-78
2022/01/05 06:01:29;;;;;;;8.15;1.80;;;4.00;99.90;;;;;;5012904;28;20194;-78
2022/01/05 06:03:56;;;;;;;6.10;1.50;;;4.00;99.90;;;;;;5013247;28;20270;-78
2022/01/05 06:06:21;;;;;;;3.80;1.38;;;4.00;99.90;;;;;;4995529;28;20632;-78
2022/01/05 06:08:47;;;;;;;5.50;1.40;;;3.90;99.90;;;;;;5013255;28;20167;-78
2022/01/05 06:11:13;;;;;;;3.00;1.20;;;3.90;99.90;;;;;;5012627;28;20329;-78
2022/01/05 06:13:38;;;;;;;6.07;1.77;;;3.90;99.90;;;;;;4995590;28;20566;-78
2022/01/05 06:16:04;;;;;;;6.90;1.57;;;3.90;99.90;;;;;;5012831;28;20178;-78
2022/01/05 06:18:30;;;;;;;6.37;1.70;;;3.90;99.90;;;;;;5012967;28;20680;-78
2022/01/05 06:20:56;;;;;;;3.50;1.35;;;4.00;99.90;;;;;;5012485;28;20597;-78
2022/01/05 06:23:22;;;;;;;4.20;1.20;;;4.00;99.90;;;;;;5012911;28;20197;-78
2022/01/05 06:25:47;;;;;;;4.40;1.30;;;4.00;99.90;;;;;;5012919;28;20252;-78
2022/01/05 06:28:13;;;;;;;5.03;1.57;;;4.00;99.90;;;;;;5012970;28;20182;-78
2022/01/05 06:30:40;;;;;;;6.20;1.50;;;4.10;99.90;;;;;;4994849;28;20198;-78
2022/01/05 06:33:07;;;;;;;4.38;1.40;;;4.10;99.90;;;;;;5012836;28;20177;-78
2022/01/05 06:35:33;;;;;;;3.83;1.48;;;4.20;99.90;;;;;;5012849;28;20170;-78
2022/01/05 06:37:59;;;;;;;7.38;1.50;;;4.30;99.90;;;;;;5012674;28;20178;-78
2022/01/05 06:40:25;;;;;;;6.13;1.45;;;4.30;99.90;;;;;;5012179;28;20225;-78
2022/01/05 06:42:50;;;;;;;6.60;1.80;;;4.40;99.90;;;;;;5012836;28;20642;-78
2022/01/05 06:45:16;;;;;;;6.80;1.73;;;4.50;99.90;;;;;;5012235;28;20608;-78
2022/01/05 06:47:42;;;;;;;6.50;1.37;;;4.50;99.90;;;;;;4994556;28;20169;-78
2022/01/05 06:50:11;;;;;;;9.27;1.70;;;4.60;99.90;;;;;;5012121;28;20169;-78
2022/01/05 06:52:37;;;;;;;6.65;1.75;;;4.60;99.90;;;;;;5012472;28;20536;-78
2022/01/05 06:55:04;;;;;;;7.78;1.95;;;4.70;99.90;;;;;;4994594;28;20755;-77
2022/01/05 06:57:30;;;;;;;9.90;1.95;;;4.70;99.90;;;;;;5017165;28;20178;-77
2022/01/05 06:59:56;;;;;;;4.65;1.40;;;4.70;99.90;;;;;;5029469;28;20170;-76
2022/01/05 07:02:22;;;;;;;6.27;1.60;;;4.80;99.90;;;;;;5029963;28;20549;-76
2022/01/05 07:04:48;;;;;;;4.03;1.33;;;4.80;99.90;;;;;;5014555;28;20199;-77
2022/01/05 07:07:14;;;;;;;5.23;1.57;;;4.90;99.90;;;;;;5014799;28;21128;-78
2022/01/05 07:09:39;;;;;;;7.03;1.67;;;5.00;99.90;;;;;;5016959;28;20170;-78
2022/01/05 07:12:06;;;;;;;5.90;1.77;;;5.00;99.90;;;;;;5011549;28;21452;-78
2022/01/05 07:14:31;;;;;;;6.53;1.60;;;5.00;99.90;;;;;;4959525;28;20261;-78
2022/01/05 07:16:57;;;;;;;3.67;1.47;;;5.10;99.90;;;;;;4993066;28;20266;-79
2022/01/05 07:19:23;;;;;;;3.43;1.57;;;5.10;99.90;;;;;;5011940;28;20202;-80
2022/01/05 07:21:49;;;;;;;12.37;1.40;;;5.10;99.90;;;;;;5011683;28;20190;-81
2022/01/05 07:24:17;;;;;;;12.50;2.10;;;5.20;99.90;;;;;;5012027;28;20214;-80
2022/01/05 07:26:44;;;;;;;9.95;1.85;;;5.20;99.90;;;;;;4994480;28;20582;-80
2022/01/05 07:29:14;;;;;;;9.48;1.98;;;5.20;99.90;;;;;;4996898;28;20167;-80
2022/01/05 07:31:41;;;;;;;2.97;1.40;;;5.20;99.90;;;;;;5009050;28;20186;-80
2022/01/05 07:34:07;;;;;;;5.93;1.70;;;5.30;99.90;;;;;;4991722;28;20170;-80
2022/01/05 07:36:33;;;;;;;4.57;1.40;;;5.30;99.90;;;;;;5008562;28;20166;-80
2022/01/05 07:38:59;;;;;;;4.90;2.00;;;5.30;99.90;;;;;;5009559;28;20181;-80
2022/01/05 07:41:26;;;;;;;6.50;1.60;;;5.30;99.90;;;;;;4992299;28;20652;-79
2022/01/05 07:43:52;;;;;;;9.85;3.30;;;5.40;99.90;;;;;;4992215;28;20197;-79
2022/01/05 07:46:18;;;;;;;8.33;2.00;;;5.40;99.90;;;;;;5011194;28;20198;-81
2022/01/05 07:48:44;;;;;;;6.95;2.22;;;5.40;99.90;;;;;;5011468;28;21033;-83
2022/01/05 07:51:10;;;;;;;5.57;1.85;;;5.50;99.90;;;;;;5015816;28;20190;-80
2022/01/05 07:53:36;;;;;;;11.20;2.50;;;5.50;99.90;;;;;;4993304;28;20172;-79
2022/01/05 07:56:02;;;;;;;7.87;2.30;;;5.50;99.90;;;;;;5011170;28;20232;-79
2022/01/05 07:58:27;;;;;;;4.97;1.73;;;5.50;99.90;;;;;;4996186;28;20178;-79
2022/01/05 08:00:53;;;;;;;7.37;1.80;;;5.50;99.90;;;;;;5014982;28;20596;-79
2022/01/05 08:03:19;;;;;;;10.07;2.10;;;5.50;99.90;;;;;;5015120;28;20585;-81
2022/01/05 08:05:45;;;;;;;7.77;2.60;;;5.60;99.90;;;;;;5020441;28;20621;-80
2022/01/05 08:08:11;;;;;;;6.03;2.37;;;5.60;99.90;;;;;;5015015;28;21381;-78
2022/01/05 08:10:36;;;;;;;6.57;2.70;;;5.60;99.90;;;;;;5014888;28;20663;-78
2022/01/05 08:13:02;;;;;;;9.80;2.40;;;5.70;99.90;;;;;;4997436;28;20553;-79
2022/01/05 08:15:28;;;;;;;8.80;2.60;;;5.70;99.90;;;;;;5015428;28;20270;-79
2022/01/05 08:17:54;;;;;;;4.30;2.53;;;5.70;99.90;;;;;;5015071;28;20668;-79
2022/01/05 08:20:20;;;;;;;7.93;2.20;;;5.70;99.90;;;;;;5014726;28;20573;-80
2022/01/05 08:22:46;;;;;;;13.07;3.43;;;5.80;99.90;;;;;;4997237;28;20655;-79
2022/01/05 08:25:15;;;;;;;7.60;2.90;;;5.80;99.90;;;;;;5014823;28;21141;-80
2022/01/05 08:27:46;;;;;;;10.85;3.10;;;5.80;99.90;;;;;;5016292;28;20166;-79
2022/01/05 08:30:13;;;;;;;10.05;2.90;;;5.90;99.90;;;;;;5030217;28;20277;-76
2022/01/05 08:32:39;;;;;;;10.00;2.58;;;5.90;99.90;;;;;;5014394;28;20515;-80
2022/01/05 08:35:05;;;;;;;8.63;2.60;;;5.90;99.90;;;;;;5015930;28;20163;-79
2022/01/05 08:37:31;;;;;;;9.40;2.90;;;5.90;99.90;;;;;;5016496;28;20221;-79
2022/01/05 08:39:56;;;;;;;6.50;2.03;;;5.90;99.90;;;;;;4996696;28;20210;-79
2022/01/05 08:42:28;;;;;;;10.63;2.27;;;6.00;99.90;;;;;;5019961;28;20194;-80
2022/01/05 08:44:59;;;;;;;7.43;1.73;;;6.00;99.90;;;;;;4996512;28;20197;-80
2022/01/05 08:47:24;;;;;;;12.70;2.40;;;6.00;99.90;;;;;;5014190;28;20178;-79
2022/01/05 08:49:50;;;;;;;5.70;2.47;;;6.00;99.90;;;;;;4996268;28;20173;-80
2022/01/05 08:52:17;;;;;;;6.75;2.45;;;6.10;99.90;;;;;;5014402;28;20213;-79
2022/01/05 08:54:42;;;;;;;9.07;2.33;;;6.10;99.90;;;;;;5014058;28;20162;-79
2022/01/05 08:57:08;;;;;;;9.63;2.53;;;6.10;99.90;;;;;;5014287;28;20264;-79
2022/01/05 08:59:34;;;;;;;6.80;2.50;;;6.20;99.90;;;;;;4996442;28;20172;-79
2022/01/05 09:02:00;;;;;;;9.90;3.17;;;6.20;99.90;;;;;;4963804;28;20241;-79
2022/01/05 09:04:26;;;;;;;9.80;3.95;;;6.30;99.90;;;;;;4994556;28;20171;-79
2022/01/05 09:06:52;;;;;;;6.53;2.67;;;6.30;99.90;;;;;;4977481;28;20191;-78
2022/01/05 09:09:18;;;;;;;8.75;2.55;;;6.30;99.90;;;;;;4976473;28;20186;-80
2022/01/05 09:11:44;;;;;;;11.40;2.27;;;6.40;99.90;;;;;;4994362;28;20225;-78
2022/01/05 09:14:10;;;;;;;6.50;2.00;;;6.40;99.90;;;;;;4976683;28;20582;-81
2022/01/05 09:16:35;;;;;;;7.67;2.40;;;6.40;99.90;;;;;;4994659;28;20179;-81
2022/01/05 09:19:03;;;;;;;8.27;3.00;;;6.50;99.90;;;;;;4999136;28;20167;-80
2022/01/05 09:21:28;;;;;;;6.00;1.60;;;6.50;99.90;;;;;;4976054;28;20199;-80
2022/01/05 09:23:54;;;;;;;10.27;1.77;;;6.50;99.90;;;;;;4976729;28;20230;-79
2022/01/05 09:26:22;;;;;;;9.23;2.00;;;6.60;99.90;;;;;;4996673;28;20203;-80
2022/01/05 09:28:49;;;;;;;7.47;3.07;;;6.50;99.90;;;;;;4995932;28;20536;-80
2022/01/05 09:31:15;;;;;;;5.75;1.90;;;6.60;99.90;;;;;;4995855;28;20221;-81
2022/01/05 09:33:41;;;;;;;9.17;2.33;;;6.60;99.90;;;;;;5013721;28;20577;-80
2022/01/05 09:36:21;;;;;;;4.90;2.00;;;6.60;99.90;;;;;;4979808;28;20589;-79
2022/01/05 09:44:17;;;;;;;8.80;3.45;;;6.70;99.90;;;;;;5013007;28;20182;-81
2022/01/05 09:46:55;;;;;;;12.18;3.22;;;6.80;99.90;;;;;;5013282;28;20206;-81
2022/01/05 09:49:33;;;;;;;5.60;2.22;;;6.80;99.90;;;;;;5012970;28;20171;-81
2022/01/05 09:52:07;;;;;;;7.57;2.35;;;6.90;99.90;;;;;;4992993;28;20598;-81
2022/01/05 09:54:34;;;;;;;6.28;1.90;;;6.90;99.90;;;;;;4988620;28;20797;-81
2022/01/05 09:57:01;;;;;;;8.48;2.90;;;7.00;99.90;;;;;;5008677;28;20765;-80
2022/01/05 09:59:32;;;;;;;8.70;2.60;;;7.10;99.90;;;;;;5009971;28;20228;-79
2022/01/05 10:01:58;;;;;;;11.73;3.10;;;7.20;99.90;;;;;;5005741;28;20818;-79
2022/01/05 10:04:24;;;;;;;7.70;2.23;;;7.30;99.90;;;;;;5003124;28;20170;-78
2022/01/05 10:06:51;;;;;;;10.30;3.10;;;7.40;99.90;;;;;;5001264;28;20205;-77
2022/01/05 10:09:17;;;;;;;11.20;3.00;;;7.50;99.90;;;;;;5012737;28;20174;-79
2022/01/05 10:11:43;;;;;;;7.57;2.47;;;7.50;99.90;;;;;;5012379;28;20193;-78
2022/01/05 10:14:16;;;;;;;8.88;4.25;;;7.60;99.90;;;;;;4995022;28;20673;-78
2022/01/05 10:16:59;;;;;;;9.65;3.70;;;7.60;99.90;;;;;;5009280;28;20181;-79
2022/01/05 10:19:25;;;;;;;6.93;2.50;;;7.70;99.90;;;;;;4991480;28;20181;-77
2022/01/05 10:21:51;;;;;;;11.10;2.70;;;7.70;99.90;;;;;;4994228;28;20182;-77
2022/01/05 10:24:17;;;;;;;12.20;2.45;;;7.90;99.90;;;;;;5012412;28;20220;-78
2022/01/05 10:26:43;;;;;;;7.22;2.78;;;8.00;99.90;;;;;;4994692;28;20206;-75
2022/01/05 10:29:16;;;;;;;5.40;2.17;;;8.00;99.90;;;;;;5011536;28;20253;-75
2022/01/05 10:31:44;;;;;;;9.43;2.10;;;8.10;99.90;;;;;;5012852;28;20196;-76
2022/01/05 10:34:14;;;;;;;10.30;3.22;;;8.20;99.90;;;;;;5015426;28;20604;-75
2022/01/05 10:36:48;;;;;;;9.73;2.80;;;8.30;99.90;;;;;;5011702;28;20258;-76
2022/01/05 10:39:15;;;;;;;4.65;2.50;;;8.30;99.90;;;;;;4995299;28;20170;-76
2022/01/05 10:41:43;;;;;;;10.98;3.03;;;8.40;99.90;;;;;;5011174;28;20599;-75
2022/01/05 10:44:11;;;;;;;7.32;2.38;;;8.40;99.90;;;;;;4993795;28;20178;-76
2022/01/05 10:46:41;;;;;;;6.55;2.28;;;8.30;99.90;;;;;;5011552;28;20198;-76
2022/01/05 10:49:08;;;;;;;4.03;2.05;;;8.30;99.90;;;;;;5011790;28;20664;-76
2022/01/05 10:51:35;;;;;;;9.02;2.25;;;8.30;99.90;;;;;;5011183;28;20277;-76
2022/01/05 10:54:30;;;;;;;5.22;1.80;;;8.20;99.90;;;;;;5011675;28;20177;-75
2022/01/05 10:57:12;;;;;;;11.93;2.78;;;8.20;99.90;;;;;;4998570;28;20182;-76
2022/01/05 10:59:50;;;;;;;7.38;2.55;;;8.10;99.90;;;;;;4985742;28;20693;-76
2022/01/05 11:02:30;;;;;;;9.57;2.88;;;8.10;99.90;;;;;;5011596;28;20194;-77
2022/01/05 11:05:08;;;;;;;9.55;2.33;;;8.10;99.90;;;;;;5011846;28;20240;-76
2022/01/05 11:07:38;;;;;;;6.18;1.85;;;8.10;99.90;;;;;;4996936;28;20541;-76
2022/01/05 11:10:07;;;;;;;7.65;2.53;;;8.20;99.90;;;;;;5016179;28;20176;-77
2022/01/05 11:12:37;;;;;;;6.95;2.78;;;8.20;99.90;;;;;;5011384;28;20684;-76
2022/01/05 11:15:23;;;;;;;8.40;2.30;;;8.30;99.90;;;;;;5007363;28;20552;-77
2022/01/05 11:18:12;;;;;;;9.27;2.33;;;8.30;99.90;;;;;;5011510;28;20170;-76
2022/01/05 11:21:01;;;;;;;7.45;2.55;;;8.40;99.90;;;;;;5010982;28;20194;-76
2022/01/05 11:23:28;;;;;;;7.45;2.00;;;8.40;99.90;;;;;;5011772;28;20518;-76
2022/01/05 11:25:56;;;;;;;11.57;2.55;;;8.50;99.90;;;;;;4993834;28;20198;-76
2022/01/05 11:28:24;;;;;;;8.98;2.83;;;8.50;99.90;;;;;;5011102;28;20225;-76
2022/01/05 11:30:52;;;;;;;13.50;3.65;;;8.50;99.90;;;;;;5010182;28;20810;-76
2022/01/05 11:33:18;;;;;;;6.65;2.53;;;8.50;99.90;;;;;;4993162;28;20166;-76
2022/01/05 11:35:44;;;;;;;5.68;2.35;;;8.50;99.90;;;;;;5011528;28;20543;-77
2022/01/05 11:38:11;;;;;;;8.13;3.08;;;8.60;99.90;;;;;;4993644;28;20518;-76
2022/01/05 11:40:54;;;;;;;5.28;2.50;;;8.60;99.90;;;;;;5010932;28;20554;-76
2022/01/05 11:43:30;;;;;;;6.85;3.20;;;8.60;99.90;;;;;;5011166;28;20178;-77
2022/01/05 11:45:56;;;;;;;8.35;2.88;;;8.60;99.90;;;;;;5016041;28;20205;-76
2022/01/05 11:48:26;;;;;;;6.83;2.40;;;8.60;99.90;;;;;;4993521;28;20193;-76
2022/01/05 11:50:56;;;;;;;5.45;2.58;;;8.50;99.90;;;;;;5010790;28;20586;-77
2022/01/05 11:53:45;;;;;;;9.05;2.42;;;8.50;99.90;;;;;;5010922;28;20169;-76
2022/01/05 11:56:20;;;;;;;6.82;2.30;;;8.50;99.90;;;;;;5005181;28;21647;-76
2022/01/05 11:59:03;;;;;;;7.35;2.95;;;8.50;99.90;;;;;;4991494;28;20174;-75
2022/01/05 12:01:35;;;;;;;11.27;3.67;;;8.50;99.90;;;;;;4986960;28;20225;-76
2022/01/05 12:04:06;;;;;;;9.45;2.88;;;8.60;99.90;;;;;;5009001;28;20182;-76
2022/01/05 12:06:44;;;;;;;4.75;2.28;;;8.60;99.90;;;;;;5011196;28;20198;-76
2022/01/05 12:09:25;;;;;;;9.45;2.53;;;8.70;99.90;;;;;;5010826;28;20232;-75
2022/01/05 12:11:51;;;;;;;8.85;3.03;;;8.70;99.90;;;;;;5010452;28;20178;-76
2022/01/05 12:14:22;;;;;;;6.13;3.07;;;8.70;99.90;;;;;;5009657;28;20244;-75
2022/01/05 12:17:00;;;;;;;7.38;2.40;;;8.80;99.90;;;;;;5011202;28;20581;-76
2022/01/05 12:19:35;;;;;;;7.03;2.90;;;8.70;99.90;;;;;;4992519;28;20182;-77
2022/01/05 12:22:13;;;;;;;6.32;2.30;;;8.80;99.90;;;;;;5011184;28;20558;-76
2022/01/05 12:25:16;;;;;;;6.55;2.20;;;8.80;99.90;;;;;;5011157;28;20198;-75
2022/01/05 12:27:50;;;;;;;6.40;2.50;;;8.70;99.90;;;;;;4992329;28;20261;-76
2022/01/05 12:30:16;;;;;;;7.68;2.10;;;8.70;99.90;;;;;;4992858;28;20209;-76
2022/01/05 12:32:44;;;;;;;9.50;2.60;;;8.60;99.90;;;;;;5010829;28;20178;-75
2022/01/05 12:35:20;;;;;;;11.43;3.00;;;8.60;99.90;;;;;;4976903;28;20178;-76
2022/01/05 12:37:56;;;;;;;9.63;2.78;;;8.60;99.90;;;;;;5010110;28;20174;-75
2022/01/05 12:40:29;;;;;;;7.68;2.72;;;8.70;99.90;;;;;;4992812;28;20554;-75
2022/01/05 12:43:13;;;;;;;7.40;2.95;;;8.60;99.90;;;;;;5001116;28;20615;-75
2022/01/05 12:45:55;;;;;;;8.20;3.20;;;8.70;99.90;;;;;;4977674;28;20203;-74
2022/01/05 12:48:33;;;;;;;9.70;2.83;;;8.70;99.90;;;;;;4987968;28;20166;-75
2022/01/05 12:51:11;;;;;;;11.90;4.07;;;8.70;99.90;;;;;;4991708;28;20232;-75
2022/01/05 12:54:01;;;;;;;6.72;2.60;;;8.80;99.90;;;;;;5007719;28;20639;-75
2022/01/05 12:56:39;;;;;;;6.50;2.42;;;8.90;99.90;;;;;;5010550;28;20645;-76
2022/01/05 12:59:07;;;;;;;7.22;3.13;;;8.90;99.90;;;;;;4976370;28;20748;-76
2022/01/05 13:01:33;;;;;;;9.57;3.03;;;8.90;99.90;;;;;;4992024;28;20281;-75
2022/01/05 13:04:00;;;;;;;4.70;1.70;;;8.90;99.90;;;;;;5008899;28;20887;-77
2022/01/05 13:06:30;;;;;;;9.25;2.20;;;8.90;99.90;;;;;;5002939;28;20717;-75
2022/01/05 13:09:05;;;;;;;12.40;2.97;;;9.00;99.90;;;;;;4983148;28;20171;-75
2022/01/05 13:11:40;;;;;;;7.70;3.35;;;9.10;99.90;;;;;;5004110;28;20186;-75
2022/01/05 13:14:31;;;;;;;8.00;2.42;;;9.00;99.90;;;;;;5002610;28;20180;-75